sensor_id;sensor_type;location;lat;lon;timestamp;pressure;altitude;pressure_sealevel;temperature;humidity
62072;BME280;48031;48.542;13.232;2023-07-13T00:01:55;97221.72;;;24.68;70.13
62072;BME280;48031;48.542;13.232;2023-07-13T00:05:59;97230.41;;;24.67;71.79
62072;BME280;48031;48.542;13.232;2023-07-13T00:10:02;97233.25;;;24.82;70.61
62072;BME280;48031;48.542;13.232;2023-07-13T00:14:05;97226.00;;;25.98;67.17
62072;BME280;48031;48.542;13.232;2023-07-13T00:18:07;97224.28;;;25.25;68.95
62072;BME280;48031;48.542;13.232;2023-07-13T00:22:10;97218.59;;;25.46;68.39
62072;BME280;48031;48.542;13.232;2023-07-13T00:26:12;97218.53;;;25.58;68.05
62072;BME280;48031;48.542;13.232;2023-07-13T00:30:16;97217.50;;;26.06;65.51
62072;BME280;48031;48.542;13.232;2023-07-13T00:34:18;97231.78;;;25.37;67.89
62072;BME280;48031;48.542;13.232;2023-07-13T00:38:20;97220.81;;;25.41;67.86
62072;BME280;48031;48.542;13.232;2023-07-13T00:42:23;97195.59;;;26.68;63.98
62072;BME280;48031;48.542;13.232;2023-07-13T00:46:33;97182.69;;;27.29;61.63
62072;BME280;48031;48.542;13.232;2023-07-13T00:50:38;97189.59;;;26.50;62.05
62072;BME280;48031;48.542;13.232;2023-07-13T00:54:45;97202.84;;;26.09;64.36
62072;BME280;48031;48.542;13.232;2023-07-13T00:58:47;97198.78;;;27.01;62.70
62072;BME280;48031;48.542;13.232;2023-07-13T01:02:49;97203.31;;;26.90;63.48
62072;BME280;48031;48.542;13.232;2023-07-13T01:06:52;97208.69;;;26.83;62.56
62072;BME280;48031;48.542;13.232;2023-07-13T01:10:57;97209.59;;;26.71;62.48
62072;BME280;48031;48.542;13.232;2023-07-13T01:15:01;97210.31;;;26.21;64.46
62072;BME280;48031;48.542;13.232;2023-07-13T01:23:41;97203.00;;;27.49;59.63
62072;BME280;48031;48.542;13.232;2023-07-13T01:27:43;97191.09;;;26.79;63.12
62072;BME280;48031;48.542;13.232;2023-07-13T01:31:45;97196.03;;;27.20;60.43
62072;BME280;48031;48.542;13.232;2023-07-13T01:35:47;97193.66;;;27.03;60.99
62072;BME280;48031;48.542;13.232;2023-07-13T01:39:51;97199.00;;;26.77;61.29
62072;BME280;48031;48.542;13.232;2023-07-13T01:43:53;97198.84;;;27.40;59.71
62072;BME280;48031;48.542;13.232;2023-07-13T01:47:55;97196.47;;;26.87;61.57
62072;BME280;48031;48.542;13.232;2023-07-13T01:51:58;97196.03;;;26.85;61.15
62072;BME280;48031;48.542;13.232;2023-07-13T01:56:00;97200.06;;;27.23;60.96
62072;BME280;48031;48.542;13.232;2023-07-13T02:00:04;97204.13;;;26.91;60.52
62072;BME280;48031;48.542;13.232;2023-07-13T02:04:16;97203.75;;;26.76;61.97
62072;BME280;48031;48.542;13.232;2023-07-13T02:08:18;97198.75;;;26.19;62.23
62072;BME280;48031;48.542;13.232;2023-07-13T02:12:21;97193.09;;;27.13;58.99
62072;BME280;48031;48.542;13.232;2023-07-13T02:16:23;97191.38;;;27.09;59.50
62072;BME280;48031;48.542;13.232;2023-07-13T02:20:25;97197.00;;;27.47;58.99
62072;BME280;48031;48.542;13.232;2023-07-13T02:24:28;97195.94;;;26.82;59.00
62072;BME280;48031;48.542;13.232;2023-07-13T02:28:30;97184.56;;;27.06;58.81
62072;BME280;48031;48.542;13.232;2023-07-13T02:32:32;97191.34;;;27.82;57.36
62072;BME280;48031;48.542;13.232;2023-07-13T02:36:36;97184.81;;;27.17;57.88
62072;BME280;48031;48.542;13.232;2023-07-13T02:40:38;97186.13;;;28.23;55.01
62072;BME280;48031;48.542;13.232;2023-07-13T02:44:40;97184.88;;;27.97;57.03
62072;BME280;48031;48.542;13.232;2023-07-13T02:48:42;97188.53;;;28.01;56.45
62072;BME280;48031;48.542;13.232;2023-07-13T02:52:44;97187.84;;;27.47;57.83
62072;BME280;48031;48.542;13.232;2023-07-13T02:56:46;97192.78;;;27.95;56.60
62072;BME280;48031;48.542;13.232;2023-07-13T03:00:49;97191.56;;;27.35;58.32
62072;BME280;48031;48.542;13.232;2023-07-13T03:04:52;97190.59;;;27.27;58.15
62072;BME280;48031;48.542;13.232;2023-07-13T03:08:55;97182.94;;;26.55;60.92
62072;BME280;48031;48.542;13.232;2023-07-13T03:12:58;97186.16;;;26.72;60.88
62072;BME280;48031;48.542;13.232;2023-07-13T03:17:01;97191.44;;;26.93;59.70
62072;BME280;48031;48.542;13.232;2023-07-13T03:21:07;97191.38;;;26.89;59.83
62072;BME280;48031;48.542;13.232;2023-07-13T03:25:11;97200.06;;;26.88;59.58
62072;BME280;48031;48.542;13.232;2023-07-13T03:29:14;97209.72;;;25.69;62.14
62072;BME280;48031;48.542;13.232;2023-07-13T03:33:18;97211.16;;;26.69;59.52
62072;BME280;48031;48.542;13.232;2023-07-13T03:37:21;97210.81;;;25.80;60.99
62072;BME280;48031;48.542;13.232;2023-07-13T03:41:24;97218.59;;;26.65;59.44
62072;BME280;48031;48.542;13.232;2023-07-13T03:45:29;97220.69;;;25.93;60.98
62072;BME280;48031;48.542;13.232;2023-07-13T03:49:33;97229.34;;;25.76;61.99
62072;BME280;48031;48.542;13.232;2023-07-13T03:53:39;97226.31;;;25.13;63.15
62072;BME280;48031;48.542;13.232;2023-07-13T03:57:42;97230.06;;;25.33;63.02
62072;BME280;48031;48.542;13.232;2023-07-13T04:01:44;97213.00;;;25.18;61.99
62072;BME280;48031;48.542;13.232;2023-07-13T04:05:47;97214.59;;;25.19;62.21
62072;BME280;48031;48.542;13.232;2023-07-13T04:09:49;97212.38;;;25.53;61.49
62072;BME280;48031;48.542;13.232;2023-07-13T04:13:53;97205.25;;;25.80;59.57
62072;BME280;48031;48.542;13.232;2023-07-13T04:17:58;97216.22;;;25.60;61.25
62072;BME280;48031;48.542;13.232;2023-07-13T04:22:01;97210.25;;;26.33;59.04
62072;BME280;48031;48.542;13.232;2023-07-13T04:26:06;97210.25;;;26.33;58.48
62072;BME280;48031;48.542;13.232;2023-07-13T04:30:08;97202.63;;;27.31;56.20
62072;BME280;48031;48.542;13.232;2023-07-13T04:34:11;97218.47;;;26.93;57.98
62072;BME280;48031;48.542;13.232;2023-07-13T04:38:13;97223.63;;;26.75;57.81
62072;BME280;48031;48.542;13.232;2023-07-13T04:42:16;97228.59;;;27.51;56.08
62072;BME280;48031;48.542;13.232;2023-07-13T04:46:20;97223.06;;;27.20;56.93
62072;BME280;48031;48.542;13.232;2023-07-13T04:50:22;97225.88;;;27.74;55.77
62072;BME280;48031;48.542;13.232;2023-07-13T04:54:25;97226.38;;;27.25;57.35
62072;BME280;48031;48.542;13.232;2023-07-13T04:58:28;97230.09;;;27.49;56.19
62072;BME280;48031;48.542;13.232;2023-07-13T05:02:31;97233.19;;;27.09;56.58
62072;BME280;48031;48.542;13.232;2023-07-13T05:06:34;97235.84;;;26.86;58.56
62072;BME280;48031;48.542;13.232;2023-07-13T05:10:37;97235.22;;;28.04;55.39
62072;BME280;48031;48.542;13.232;2023-07-13T05:14:39;97244.03;;;28.06;54.70
62072;BME280;48031;48.542;13.232;2023-07-13T05:18:41;97241.47;;;27.05;57.78
62072;BME280;48031;48.542;13.232;2023-07-13T05:22:44;97247.44;;;27.77;56.08
62072;BME280;48031;48.542;13.232;2023-07-13T05:26:48;97236.22;;;28.80;52.82
62072;BME280;48031;48.542;13.232;2023-07-13T05:30:51;97247.59;;;28.26;54.11
62072;BME280;48031;48.542;13.232;2023-07-13T05:34:54;97242.34;;;28.89;53.54
62072;BME280;48031;48.542;13.232;2023-07-13T05:38:56;97254.16;;;28.57;53.71
62072;BME280;48031;48.542;13.232;2023-07-13T05:42:58;97260.69;;;28.22;54.71
62072;BME280;48031;48.542;13.232;2023-07-13T05:47:01;97262.50;;;26.87;57.89
62072;BME280;48031;48.542;13.232;2023-07-13T05:51:03;97270.50;;;27.04;58.16
62072;BME280;48031;48.542;13.232;2023-07-13T05:55:05;97267.84;;;27.27;57.54
62072;BME280;48031;48.542;13.232;2023-07-13T05:59:08;97284.22;;;25.91;60.51
62072;BME280;48031;48.542;13.232;2023-07-13T06:03:11;97284.88;;;26.43;61.34
62072;BME280;48031;48.542;13.232;2023-07-13T06:07:14;97283.75;;;27.26;58.29
62072;BME280;48031;48.542;13.232;2023-07-13T06:11:22;97289.16;;;25.97;60.75
62072;BME280;48031;48.542;13.232;2023-07-13T06:15:24;97301.09;;;26.26;60.75
62072;BME280;48031;48.542;13.232;2023-07-13T06:19:26;97292.66;;;25.94;61.19
62072;BME280;48031;48.542;13.232;2023-07-13T06:23:29;97289.91;;;27.16;58.06
62072;BME280;48031;48.542;13.232;2023-07-13T06:27:31;97300.50;;;26.32;60.44
62072;BME280;48031;48.542;13.232;2023-07-13T06:31:35;97309.94;;;26.43;60.40
62072;BME280;48031;48.542;13.232;2023-07-13T06:35:38;97300.53;;;25.92;60.98
62072;BME280;48031;48.542;13.232;2023-07-13T06:39:40;97300.78;;;26.59;60.30
62072;BME280;48031;48.542;13.232;2023-07-13T06:43:43;97299.53;;;27.19;58.48
62072;BME280;48031;48.542;13.232;2023-07-13T06:47:45;97288.72;;;27.17;56.92
62072;BME280;48031;48.542;13.232;2023-07-13T06:51:48;97304.84;;;26.18;59.25
62072;BME280;48031;48.542;13.232;2023-07-13T06:55:51;97320.91;;;26.83;56.89
62072;BME280;48031;48.542;13.232;2023-07-13T06:59:53;97319.88;;;26.88;57.20
62072;BME280;48031;48.542;13.232;2023-07-13T07:03:55;97326.50;;;26.99;56.72
62072;BME280;48031;48.542;13.232;2023-07-13T07:07:58;97310.19;;;27.87;54.66
62072;BME280;48031;48.542;13.232;2023-07-13T07:12:00;97308.28;;;29.20;51.84
62072;BME280;48031;48.542;13.232;2023-07-13T07:16:06;97313.81;;;27.68;54.96
62072;BME280;48031;48.542;13.232;2023-07-13T07:20:10;97308.91;;;28.19;52.21
62072;BME280;48031;48.542;13.232;2023-07-13T07:24:12;97313.00;;;27.17;55.41
62072;BME280;48031;48.542;13.232;2023-07-13T07:28:16;97323.03;;;27.53;54.05
62072;BME280;48031;48.542;13.232;2023-07-13T07:32:23;97332.06;;;27.15;54.06
62072;BME280;48031;48.542;13.232;2023-07-13T07:36:29;97336.00;;;27.80;51.67
62072;BME280;48031;48.542;13.232;2023-07-13T07:40:39;97335.25;;;28.22;51.12
62072;BME280;48031;48.542;13.232;2023-07-13T07:44:46;97323.34;;;28.05;50.07
62072;BME280;48031;48.542;13.232;2023-07-13T07:48:49;97334.19;;;27.37;51.00
62072;BME280;48031;48.542;13.232;2023-07-13T07:52:51;97333.41;;;27.91;49.17
62072;BME280;48031;48.542;13.232;2023-07-13T07:56:53;97339.56;;;28.00;49.83
62072;BME280;48031;48.542;13.232;2023-07-13T08:01:03;97352.78;;;25.99;54.17
62072;BME280;48031;48.542;13.232;2023-07-13T08:05:10;97353.41;;;26.20;53.41
62072;BME280;48031;48.542;13.232;2023-07-13T08:09:15;97340.03;;;27.32;50.77
62072;BME280;48031;48.542;13.232;2023-07-13T08:13:17;97342.31;;;29.49;47.44
62072;BME280;48031;48.542;13.232;2023-07-13T08:17:20;97346.56;;;29.92;45.53
62072;BME280;48031;48.542;13.232;2023-07-13T08:21:22;97356.84;;;28.44;47.43
62072;BME280;48031;48.542;13.232;2023-07-13T08:25:24;97354.59;;;29.18;45.61
62072;BME280;48031;48.542;13.232;2023-07-13T08:29:26;97375.00;;;29.71;44.27
62072;BME280;48031;48.542;13.232;2023-07-13T08:33:28;97382.25;;;28.77;45.87
62072;BME280;48031;48.542;13.232;2023-07-13T08:37:31;97376.97;;;28.53;44.63
62072;BME280;48031;48.542;13.232;2023-07-13T08:41:33;97379.28;;;27.74;46.67
62072;BME280;48031;48.542;13.232;2023-07-13T08:45:52;97381.59;;;29.56;43.68
62072;BME280;48031;48.542;13.232;2023-07-13T08:49:56;97394.25;;;28.59;44.43
62072;BME280;48031;48.542;13.232;2023-07-13T08:54:02;97381.56;;;29.07;42.50
62072;BME280;48031;48.542;13.232;2023-07-13T08:58:10;97379.22;;;29.09;42.52
62072;BME280;48031;48.542;13.232;2023-07-13T09:02:28;97383.88;;;29.01;42.88
62072;BME280;48031;48.542;13.232;2023-07-13T09:10:54;97399.97;;;30.39;40.56
62072;BME280;48031;48.542;13.232;2023-07-13T09:15:02;97384.53;;;31.26;37.82
62072;BME280;48031;48.542;13.232;2023-07-13T09:19:12;97401.38;;;31.30;36.96
62072;BME280;48031;48.542;13.232;2023-07-13T09:23:20;97402.19;;;29.70;41.34
62072;BME280;48031;48.542;13.232;2023-07-13T09:27:29;97403.91;;;30.35;38.70
62072;BME280;48031;48.542;13.232;2023-07-13T09:31:37;97407.69;;;29.14;39.56
62072;BME280;48031;48.542;13.232;2023-07-13T09:35:41;97407.16;;;30.07;38.54
62072;BME280;48031;48.542;13.232;2023-07-13T09:39:44;97407.53;;;30.35;37.63
62072;BME280;48031;48.542;13.232;2023-07-13T09:48:14;97422.44;;;30.76;35.84
62072;BME280;48031;48.542;13.232;2023-07-13T09:52:17;97427.88;;;30.32;37.48
62072;BME280;48031;48.542;13.232;2023-07-13T09:56:29;97430.78;;;29.57;36.86
62072;BME280;48031;48.542;13.232;2023-07-13T10:00:31;97423.97;;;30.07;36.48
62072;BME280;48031;48.542;13.232;2023-07-13T10:04:34;97421.72;;;29.41;38.25
62072;BME280;48031;48.542;13.232;2023-07-13T10:08:37;97418.00;;;29.33;34.81
62072;BME280;48031;48.542;13.232;2023-07-13T10:12:39;97426.53;;;29.21;36.35
62072;BME280;48031;48.542;13.232;2023-07-13T10:16:43;97422.47;;;30.16;35.67
62072;BME280;48031;48.542;13.232;2023-07-13T10:20:46;97424.47;;;30.16;35.18
62072;BME280;48031;48.542;13.232;2023-07-13T10:24:52;97431.69;;;30.47;34.37
62072;BME280;48031;48.542;13.232;2023-07-13T10:28:57;97429.78;;;32.31;32.19
62072;BME280;48031;48.542;13.232;2023-07-13T10:33:02;97423.22;;;32.09;30.77
62072;BME280;48031;48.542;13.232;2023-07-13T10:37:07;97420.94;;;31.23;30.45
62072;BME280;48031;48.542;13.232;2023-07-13T10:41:22;97422.28;;;32.63;29.44
62072;BME280;48031;48.542;13.232;2023-07-13T10:45:27;97432.06;;;31.16;30.32
62072;BME280;48031;48.542;13.232;2023-07-13T10:49:32;97438.19;;;29.46;33.55
62072;BME280;48031;48.542;13.232;2023-07-13T10:53:37;97441.91;;;30.02;32.87
62072;BME280;48031;48.542;13.232;2023-07-13T10:57:43;97441.84;;;30.92;31.28
62072;BME280;48031;48.542;13.232;2023-07-13T11:01:55;97440.00;;;30.40;32.37
62072;BME280;48031;48.542;13.232;2023-07-13T11:10:57;97452.75;;;28.32;35.22
62072;BME280;48031;48.542;13.232;2023-07-13T11:15:01;97448.03;;;28.17;34.23
62072;BME280;48031;48.542;13.232;2023-07-13T11:27:24;97454.41;;;27.83;36.62
62072;BME280;48031;48.542;13.232;2023-07-13T11:31:32;97462.81;;;28.94;33.75
62072;BME280;48031;48.542;13.232;2023-07-13T11:35:37;97450.47;;;30.46;31.56
62072;BME280;48031;48.542;13.232;2023-07-13T11:39:43;97457.16;;;31.02;30.92
62072;BME280;48031;48.542;13.232;2023-07-13T11:43:49;97453.00;;;30.88;31.21
62072;BME280;48031;48.542;13.232;2023-07-13T11:47:51;97452.06;;;32.02;28.77
62072;BME280;48031;48.542;13.232;2023-07-13T11:51:53;97451.16;;;32.53;27.34
62072;BME280;48031;48.542;13.232;2023-07-13T11:55:57;97437.38;;;39.66;20.16
62072;BME280;48031;48.542;13.232;2023-07-13T12:00:23;97434.34;;;41.46;18.59
62072;BME280;48031;48.542;13.232;2023-07-13T12:04:31;97438.19;;;42.25;17.26
62072;BME280;48031;48.542;13.232;2023-07-13T12:08:39;97449.28;;;44.12;15.13
62072;BME280;48031;48.542;13.232;2023-07-13T12:12:56;97436.16;;;43.74;13.37
62072;BME280;48031;48.542;13.232;2023-07-13T12:16:59;97425.72;;;39.08;17.85
62072;BME280;48031;48.542;13.232;2023-07-13T12:21:02;97421.50;;;44.58;12.88
62072;BME280;48031;48.542;13.232;2023-07-13T12:25:11;97419.16;;;41.12;14.78
62072;BME280;48031;48.542;13.232;2023-07-13T12:29:16;97407.38;;;40.26;17.12
62072;BME280;48031;48.542;13.232;2023-07-13T12:33:18;97403.41;;;41.20;15.88
62072;BME280;48031;48.542;13.232;2023-07-13T12:37:22;97408.69;;;45.04;12.24
62072;BME280;48031;48.542;13.232;2023-07-13T12:41:24;97394.72;;;37.26;18.64
62072;BME280;48031;48.542;13.232;2023-07-13T12:45:27;97393.72;;;43.33;14.08
62072;BME280;48031;48.542;13.232;2023-07-13T12:49:31;97387.38;;;46.43;11.58
62072;BME280;48031;48.542;13.232;2023-07-13T12:53:41;97384.56;;;46.87;10.60
62072;BME280;48031;48.542;13.232;2023-07-13T12:57:50;97398.00;;;43.28;13.66
62072;BME280;48031;48.542;13.232;2023-07-13T13:01:53;97381.28;;;45.78;11.85
62072;BME280;48031;48.542;13.232;2023-07-13T13:05:59;97388.31;;;44.93;11.98
62072;BME280;48031;48.542;13.232;2023-07-13T13:10:11;97369.72;;;48.48;10.51
62072;BME280;48031;48.542;13.232;2023-07-13T13:14:14;97367.06;;;48.24;9.61
62072;BME280;48031;48.542;13.232;2023-07-13T13:18:17;97364.28;;;41.58;15.92
62072;BME280;48031;48.542;13.232;2023-07-13T13:22:20;97367.22;;;49.44;10.86
62072;BME280;48031;48.542;13.232;2023-07-13T13:26:22;97359.47;;;51.19;7.99
62072;BME280;48031;48.542;13.232;2023-07-13T13:30:24;97345.19;;;41.93;15.92
62072;BME280;48031;48.542;13.232;2023-07-13T13:34:26;97350.53;;;45.79;12.21
62072;BME280;48031;48.542;13.232;2023-07-13T13:38:29;97350.13;;;48.78;9.39
62072;BME280;48031;48.542;13.232;2023-07-13T13:42:31;97333.53;;;40.36;16.62
62072;BME280;48031;48.542;13.232;2023-07-13T13:46:36;97326.94;;;38.64;18.81
62072;BME280;48031;48.542;13.232;2023-07-13T13:50:38;97339.59;;;34.82;22.50
62072;BME280;48031;48.542;13.232;2023-07-13T13:54:40;97334.06;;;37.23;20.24
62072;BME280;48031;48.542;13.232;2023-07-13T13:58:42;97330.25;;;37.60;20.36
62072;BME280;48031;48.542;13.232;2023-07-13T14:02:47;97328.34;;;33.63;24.63
62072;BME280;48031;48.542;13.232;2023-07-13T14:06:50;97339.69;;;33.21;25.73
62072;BME280;48031;48.542;13.232;2023-07-13T14:10:56;97319.28;;;39.94;19.26
62072;BME280;48031;48.542;13.232;2023-07-13T14:14:58;97329.78;;;49.19;10.77
62072;BME280;48031;48.542;13.232;2023-07-13T14:19:01;97328.75;;;36.75;20.78
62072;BME280;48031;48.542;13.232;2023-07-13T14:23:03;97332.97;;;34.41;24.40
62072;BME280;48031;48.542;13.232;2023-07-13T14:27:09;97318.63;;;37.74;20.21
62072;BME280;48031;48.542;13.232;2023-07-13T14:31:14;97332.00;;;34.72;24.87
62072;BME280;48031;48.542;13.232;2023-07-13T14:35:20;97326.91;;;34.42;23.90
62072;BME280;48031;48.542;13.232;2023-07-13T14:39:24;97319.91;;;32.68;26.58
62072;BME280;48031;48.542;13.232;2023-07-13T14:43:26;97320.75;;;33.46;26.45
62072;BME280;48031;48.542;13.232;2023-07-13T14:47:31;97326.34;;;39.25;19.03
62072;BME280;48031;48.542;13.232;2023-07-13T14:51:33;97335.09;;;35.43;22.97
62072;BME280;48031;48.542;13.232;2023-07-13T14:55:35;97336.41;;;33.12;25.82
62072;BME280;48031;48.542;13.232;2023-07-13T14:59:38;97331.06;;;34.93;22.97
62072;BME280;48031;48.542;13.232;2023-07-13T15:03:44;97308.00;;;37.08;21.74
62072;BME280;48031;48.542;13.232;2023-07-13T15:07:47;97296.75;;;35.87;22.87
62072;BME280;48031;48.542;13.232;2023-07-13T15:11:49;97313.38;;;35.37;23.07
62072;BME280;48031;48.542;13.232;2023-07-13T15:15:53;97311.41;;;35.75;22.36
62072;BME280;48031;48.542;13.232;2023-07-13T15:19:55;97306.53;;;35.38;22.41
62072;BME280;48031;48.542;13.232;2023-07-13T15:23:58;97314.19;;;34.02;23.75
62072;BME280;48031;48.542;13.232;2023-07-13T15:28:00;97313.56;;;35.60;22.16
62072;BME280;48031;48.542;13.232;2023-07-13T15:32:07;97312.81;;;35.08;20.88
62072;BME280;48031;48.542;13.232;2023-07-13T15:36:12;97313.00;;;34.80;21.74
62072;BME280;48031;48.542;13.232;2023-07-13T15:40:14;97320.16;;;34.18;22.01
62072;BME280;48031;48.542;13.232;2023-07-13T15:44:29;97318.75;;;33.43;23.35
62072;BME280;48031;48.542;13.232;2023-07-13T15:48:32;97315.28;;;32.10;24.16
62072;BME280;48031;48.542;13.232;2023-07-13T15:52:34;97321.56;;;33.29;23.72
62072;BME280;48031;48.542;13.232;2023-07-13T15:56:37;97315.81;;;34.03;22.07
62072;BME280;48031;48.542;13.232;2023-07-13T16:00:39;97324.78;;;33.27;23.61
62072;BME280;48031;48.542;13.232;2023-07-13T16:04:44;97326.38;;;33.07;23.74
62072;BME280;48031;48.542;13.232;2023-07-13T16:08:46;97327.41;;;31.05;25.29
62072;BME280;48031;48.542;13.232;2023-07-13T16:12:48;97328.41;;;33.24;23.32
62072;BME280;48031;48.542;13.232;2023-07-13T16:16:50;97322.72;;;33.74;23.52
62072;BME280;48031;48.542;13.232;2023-07-13T16:20:58;97327.00;;;32.33;25.27
62072;BME280;48031;48.542;13.232;2023-07-13T16:25:01;97339.03;;;31.03;26.36
62072;BME280;48031;48.542;13.232;2023-07-13T16:29:02;97343.03;;;30.65;26.17
62072;BME280;48031;48.542;13.232;2023-07-13T16:33:05;97358.88;;;30.87;26.63
62072;BME280;48031;48.542;13.232;2023-07-13T16:37:15;97346.28;;;30.71;26.68
62072;BME280;48031;48.542;13.232;2023-07-13T16:41:18;97340.63;;;31.55;25.83
62072;BME280;48031;48.542;13.232;2023-07-13T16:45:21;97347.94;;;31.63;26.24
62072;BME280;48031;48.542;13.232;2023-07-13T16:49:34;97360.09;;;30.86;26.85
62072;BME280;48031;48.542;13.232;2023-07-13T16:53:38;97351.22;;;36.86;19.70
62072;BME280;48031;48.542;13.232;2023-07-13T16:57:45;97339.28;;;38.74;17.93
62072;BME280;48031;48.542;13.232;2023-07-13T17:01:48;97347.25;;;37.06;19.53
62072;BME280;48031;48.542;13.232;2023-07-13T17:05:50;97368.66;;;32.10;25.73
62072;BME280;48031;48.542;13.232;2023-07-13T17:09:52;97372.75;;;30.06;28.34
62072;BME280;48031;48.542;13.232;2023-07-13T17:13:55;97377.00;;;29.44;28.69
62072;BME280;48031;48.542;13.232;2023-07-13T17:17:58;97382.06;;;29.61;28.75
62072;BME280;48031;48.542;13.232;2023-07-13T17:22:12;97381.13;;;29.27;29.19
62072;BME280;48031;48.542;13.232;2023-07-13T17:26:19;97376.91;;;29.37;29.39
62072;BME280;48031;48.542;13.232;2023-07-13T17:30:21;97378.44;;;29.87;29.42
62072;BME280;48031;48.542;13.232;2023-07-13T17:34:24;97379.50;;;29.26;30.42
62072;BME280;48031;48.542;13.232;2023-07-13T17:38:47;97383.06;;;29.01;31.13
62072;BME280;48031;48.542;13.232;2023-07-13T17:42:53;97386.84;;;28.89;31.16
62072;BME280;48031;48.542;13.232;2023-07-13T17:46:57;97388.53;;;28.93;31.41
62072;BME280;48031;48.542;13.232;2023-07-13T17:51:01;97387.34;;;29.17;31.24
62072;BME280;48031;48.542;13.232;2023-07-13T17:55:15;97382.88;;;29.36;31.74
62072;BME280;48031;48.542;13.232;2023-07-13T17:59:17;97392.75;;;28.84;31.80
62072;BME280;48031;48.542;13.232;2023-07-13T18:03:25;97389.69;;;29.38;31.52
62072;BME280;48031;48.542;13.232;2023-07-13T18:07:35;97391.06;;;29.25;32.14
62072;BME280;48031;48.542;13.232;2023-07-13T18:11:37;97391.06;;;28.79;32.67
62072;BME280;48031;48.542;13.232;2023-07-13T18:15:39;97391.09;;;29.02;32.64
62072;BME280;48031;48.542;13.232;2023-07-13T18:19:46;97393.13;;;30.03;31.05
62072;BME280;48031;48.542;13.232;2023-07-13T18:23:49;97393.09;;;29.28;32.15
62072;BME280;48031;48.542;13.232;2023-07-13T18:27:51;97391.09;;;30.04;31.31
62072;BME280;48031;48.542;13.232;2023-07-13T18:31:54;97393.97;;;29.55;32.64
62072;BME280;48031;48.542;13.232;2023-07-13T18:36:01;97400.41;;;29.85;32.50
62072;BME280;48031;48.542;13.232;2023-07-13T18:40:07;97408.84;;;29.59;33.21
62072;BME280;48031;48.542;13.232;2023-07-13T18:44:13;97402.94;;;29.18;35.17
62072;BME280;48031;48.542;13.232;2023-07-13T18:48:20;97420.31;;;28.85;35.82
62072;BME280;48031;48.542;13.232;2023-07-13T18:52:24;97414.06;;;29.38;34.87
62072;BME280;48031;48.542;13.232;2023-07-13T18:56:27;97416.03;;;28.30;37.58
62072;BME280;48031;48.542;13.232;2023-07-13T19:00:29;97420.47;;;28.54;36.56
62072;BME280;48031;48.542;13.232;2023-07-13T19:04:33;97426.66;;;28.25;36.56
62072;BME280;48031;48.542;13.232;2023-07-13T19:08:38;97436.72;;;27.94;37.81
62072;BME280;48031;48.542;13.232;2023-07-13T19:12:46;97435.22;;;27.97;38.57
62072;BME280;48031;48.542;13.232;2023-07-13T19:16:50;97461.63;;;27.68;39.15
62072;BME280;48031;48.542;13.232;2023-07-13T19:20:56;97459.69;;;27.53;39.18
62072;BME280;48031;48.542;13.232;2023-07-13T19:24:59;97467.38;;;27.44;38.80
62072;BME280;48031;48.542;13.232;2023-07-13T19:29:02;97475.81;;;27.31;38.86
62072;BME280;48031;48.542;13.232;2023-07-13T19:33:15;97482.81;;;27.25;39.38
62072;BME280;48031;48.542;13.232;2023-07-13T19:37:22;97483.41;;;26.87;40.07
62072;BME280;48031;48.542;13.232;2023-07-13T19:41:25;97485.88;;;27.05;39.46
62072;BME280;48031;48.542;13.232;2023-07-13T19:45:28;97488.56;;;26.45;39.59
62072;BME280;48031;48.542;13.232;2023-07-13T19:49:30;97491.50;;;26.65;40.22
62072;BME280;48031;48.542;13.232;2023-07-13T19:53:32;97499.91;;;26.53;40.61
62072;BME280;48031;48.542;13.232;2023-07-13T19:57:36;97493.59;;;26.03;40.58
62072;BME280;48031;48.542;13.232;2023-07-13T20:01:38;97492.53;;;26.20;40.36
62072;BME280;48031;48.542;13.232;2023-07-13T20:05:41;97503.72;;;25.96;41.53
62072;BME280;48031;48.542;13.232;2023-07-13T20:09:50;97497.91;;;26.01;42.02
62072;BME280;48031;48.542;13.232;2023-07-13T20:13:54;97506.78;;;26.43;40.66
62072;BME280;48031;48.542;13.232;2023-07-13T20:17:58;97521.31;;;26.12;41.48
62072;BME280;48031;48.542;13.232;2023-07-13T20:22:02;97531.41;;;26.04;42.40
62072;BME280;48031;48.542;13.232;2023-07-13T20:26:04;97528.53;;;25.77;42.87
62072;BME280;48031;48.542;13.232;2023-07-13T20:30:07;97533.63;;;25.75;42.66
62072;BME280;48031;48.542;13.232;2023-07-13T20:34:18;97534.78;;;25.86;42.59
62072;BME280;48031;48.542;13.232;2023-07-13T20:38:22;97543.59;;;26.00;41.77
62072;BME280;48031;48.542;13.232;2023-07-13T20:42:24;97544.06;;;25.78;43.04
62072;BME280;48031;48.542;13.232;2023-07-13T20:46:26;97544.53;;;25.67;42.71
62072;BME280;48031;48.542;13.232;2023-07-13T20:50:30;97550.34;;;24.97;42.98
62072;BME280;48031;48.542;13.232;2023-07-13T20:54:32;97552.13;;;25.46;42.32
62072;BME280;48031;48.542;13.232;2023-07-13T20:58:34;97555.50;;;25.52;42.86
62072;BME280;48031;48.542;13.232;2023-07-13T21:02:36;97564.97;;;25.06;43.03
62072;BME280;48031;48.542;13.232;2023-07-13T21:06:39;97567.44;;;25.19;43.16
62072;BME280;48031;48.542;13.232;2023-07-13T21:10:44;97561.59;;;25.00;44.66
62072;BME280;48031;48.542;13.232;2023-07-13T21:14:49;97572.97;;;24.86;44.04
62072;BME280;48031;48.542;13.232;2023-07-13T21:18:52;97586.03;;;24.86;43.76
62072;BME280;48031;48.542;13.232;2023-07-13T21:22:55;97577.50;;;24.70;43.69
62072;BME280;48031;48.542;13.232;2023-07-13T21:27:00;97577.84;;;24.69;43.93
62072;BME280;48031;48.542;13.232;2023-07-13T21:31:24;97576.09;;;24.85;43.72
62072;BME280;48031;48.542;13.232;2023-07-13T21:35:32;97583.38;;;25.10;43.81
62072;BME280;48031;48.542;13.232;2023-07-13T21:39:35;97592.25;;;25.82;41.84
62072;BME280;48031;48.542;13.232;2023-07-13T21:43:37;97591.00;;;25.91;42.79